sensor_id;sensor_type;location;lat;lon;timestamp;pressure;altitude;pressure_sealevel;temperature;humidity
78016;BME280;67223;51.102;5.882;2023-04-19T00:02:14;102387.81;;;10.54;67.50
78016;BME280;67223;51.102;5.882;2023-04-19T00:04:40;102392.13;;;10.56;66.95
78016;BME280;67223;51.102;5.882;2023-04-19T00:07:06;102391.78;;;10.62;67.52
78016;BME280;67223;51.102;5.882;2023-04-19T00:09:32;102397.22;;;10.61;67.34
78016;BME280;67223;51.102;5.882;2023-04-19T00:11:58;102396.19;;;10.63;66.89
78016;BME280;67223;51.102;5.882;2023-04-19T00:14:23;102393.69;;;10.60;67.00
78016;BME280;67223;51.102;5.882;2023-04-19T00:16:48;102394.78;;;10.56;66.75
78016;BME280;67223;51.102;5.882;2023-04-19T00:19:14;102394.44;;;10.62;67.14
78016;BME280;67223;51.102;5.882;2023-04-19T00:21:40;102393.50;;;10.63;66.99
78016;BME280;67223;51.102;5.882;2023-04-19T00:24:05;102398.78;;;10.65;67.04
78016;BME280;67223;51.102;5.882;2023-04-19T00:26:31;102394.56;;;10.61;66.65
78016;BME280;67223;51.102;5.882;2023-04-19T00:28:56;102399.03;;;10.60;67.44
78016;BME280;67223;51.102;5.882;2023-04-19T00:31:21;102401.59;;;10.62;67.50
78016;BME280;67223;51.102;5.882;2023-04-19T00:33:47;102397.63;;;10.69;66.97
78016;BME280;67223;51.102;5.882;2023-04-19T00:36:12;102406.78;;;10.65;67.61
78016;BME280;67223;51.102;5.882;2023-04-19T00:38:38;102389.09;;;10.62;67.31
78016;BME280;67223;51.102;5.882;2023-04-19T00:41:03;102389.09;;;10.62;67.44
78016;BME280;67223;51.102;5.882;2023-04-19T00:43:29;102391.69;;;10.64;67.00
78016;BME280;67223;51.102;5.882;2023-04-19T00:45:54;102395.38;;;10.61;67.65
78016;BME280;67223;51.102;5.882;2023-04-19T00:48:20;102388.94;;;10.65;67.27
78016;BME280;67223;51.102;5.882;2023-04-19T00:50:45;102390.50;;;10.69;67.47
78016;BME280;67223;51.102;5.882;2023-04-19T00:53:11;102391.63;;;10.65;67.14
78016;BME280;67223;51.102;5.882;2023-04-19T00:55:40;102391.44;;;10.68;66.86
78016;BME280;67223;51.102;5.882;2023-04-19T00:58:07;102393.16;;;10.69;67.64
78016;BME280;67223;51.102;5.882;2023-04-19T01:00:33;102388.84;;;10.67;67.47
78016;BME280;67223;51.102;5.882;2023-04-19T01:02:59;102381.88;;;10.64;67.47
78016;BME280;67223;51.102;5.882;2023-04-19T01:05:25;102389.53;;;10.70;67.87
78016;BME280;67223;51.102;5.882;2023-04-19T01:07:51;102381.59;;;10.69;67.34
78016;BME280;67223;51.102;5.882;2023-04-19T01:10:16;102382.47;;;10.69;67.25
78016;BME280;67223;51.102;5.882;2023-04-19T01:12:42;102383.34;;;10.70;67.77
78016;BME280;67223;51.102;5.882;2023-04-19T01:15:08;102386.16;;;10.67;67.48
78016;BME280;67223;51.102;5.882;2023-04-19T01:17:34;102378.16;;;10.67;67.40
78016;BME280;67223;51.102;5.882;2023-04-19T01:20:04;102379.28;;;10.63;67.92
78016;BME280;67223;51.102;5.882;2023-04-19T01:22:35;102383.59;;;10.65;67.78
78016;BME280;67223;51.102;5.882;2023-04-19T01:25:02;102365.91;;;10.63;67.54
78016;BME280;67223;51.102;5.882;2023-04-19T01:27:28;102373.00;;;10.64;67.67
78016;BME280;67223;51.102;5.882;2023-04-19T01:29:54;102364.19;;;10.62;68.08
78016;BME280;67223;51.102;5.882;2023-04-19T01:32:19;102365.16;;;10.61;67.61
78016;BME280;67223;51.102;5.882;2023-04-19T01:34:45;102373.59;;;10.53;68.28
78016;BME280;67223;51.102;5.882;2023-04-19T01:37:11;102368.34;;;10.52;68.60
78016;BME280;67223;51.102;5.882;2023-04-19T01:39:36;102365.84;;;10.49;68.35
78016;BME280;67223;51.102;5.882;2023-04-19T01:42:02;102368.53;;;10.49;68.35
78016;BME280;67223;51.102;5.882;2023-04-19T01:44:28;102366.88;;;10.46;68.43
78016;BME280;67223;51.102;5.882;2023-04-19T01:46:54;102359.72;;;10.47;68.75
78016;BME280;67223;51.102;5.882;2023-04-19T01:49:20;102365.31;;;10.42;69.02
78016;BME280;67223;51.102;5.882;2023-04-19T01:51:45;102361.13;;;10.38;69.21
78016;BME280;67223;51.102;5.882;2023-04-19T01:54:11;102356.63;;;10.39;69.19
78016;BME280;67223;51.102;5.882;2023-04-19T01:56:36;102361.78;;;10.42;69.50
78016;BME280;67223;51.102;5.882;2023-04-19T01:59:01;102365.44;;;10.41;70.07
78016;BME280;67223;51.102;5.882;2023-04-19T02:01:28;102364.47;;;10.42;69.40
78016;BME280;67223;51.102;5.882;2023-04-19T02:03:53;102360.16;;;10.39;69.37
78016;BME280;67223;51.102;5.882;2023-04-19T02:06:19;102354.91;;;10.38;70.12
78016;BME280;67223;51.102;5.882;2023-04-19T02:08:44;102363.59;;;10.41;70.00
78016;BME280;67223;51.102;5.882;2023-04-19T02:11:11;102358.63;;;10.35;70.08
78016;BME280;67223;51.102;5.882;2023-04-19T02:13:40;102356.63;;;10.39;70.19
78016;BME280;67223;51.102;5.882;2023-04-19T02:16:07;102355.78;;;10.38;70.48
78016;BME280;67223;51.102;5.882;2023-04-19T02:18:33;102347.69;;;10.40;70.57
78016;BME280;67223;51.102;5.882;2023-04-19T02:21:05;102354.16;;;10.35;70.70
78016;BME280;67223;51.102;5.882;2023-04-19T02:23:31;102347.34;;;10.30;70.54
78016;BME280;67223;51.102;5.882;2023-04-19T02:25:57;102339.34;;;10.30;70.67
78016;BME280;67223;51.102;5.882;2023-04-19T02:28:22;102347.75;;;10.22;71.10
78016;BME280;67223;51.102;5.882;2023-04-19T02:30:48;102345.19;;;10.21;71.34
78016;BME280;67223;51.102;5.882;2023-04-19T02:33:14;102346.03;;;10.21;71.00
78016;BME280;67223;51.102;5.882;2023-04-19T02:35:39;102353.44;;;10.16;70.99
78016;BME280;67223;51.102;5.882;2023-04-19T02:38:05;102350.38;;;10.07;71.69
78016;BME280;67223;51.102;5.882;2023-04-19T02:40:30;102357.50;;;10.06;71.71
78016;BME280;67223;51.102;5.882;2023-04-19T02:42:56;102354.09;;;10.04;72.00
78016;BME280;67223;51.102;5.882;2023-04-19T02:45:21;102352.88;;;9.94;72.58
78016;BME280;67223;51.102;5.882;2023-04-19T02:47:47;102351.06;;;9.94;72.44
78016;BME280;67223;51.102;5.882;2023-04-19T02:50:14;102347.94;;;9.86;72.69
78016;BME280;67223;51.102;5.882;2023-04-19T02:52:40;102348.97;;;9.84;72.79
78016;BME280;67223;51.102;5.882;2023-04-19T02:55:06;102351.34;;;9.73;73.25
78016;BME280;67223;51.102;5.882;2023-04-19T02:57:31;102345.06;;;9.74;73.21
78016;BME280;67223;51.102;5.882;2023-04-19T02:59:57;102353.34;;;9.69;73.40
78016;BME280;67223;51.102;5.882;2023-04-19T03:04:58;102352.91;;;9.61;73.88
78016;BME280;67223;51.102;5.882;2023-04-19T03:07:24;102349.59;;;9.56;74.08
78016;BME280;67223;51.102;5.882;2023-04-19T03:09:49;102343.56;;;9.52;73.94
78016;BME280;67223;51.102;5.882;2023-04-19T03:12:15;102341.13;;;9.48;74.45
78016;BME280;67223;51.102;5.882;2023-04-19T03:14:40;102349.06;;;9.49;74.31
78016;BME280;67223;51.102;5.882;2023-04-19T03:17:06;102348.56;;;9.41;73.94
78016;BME280;67223;51.102;5.882;2023-04-19T03:19:31;102344.69;;;9.31;74.95
78016;BME280;67223;51.102;5.882;2023-04-19T03:21:57;102349.00;;;9.34;74.94
78016;BME280;67223;51.102;5.882;2023-04-19T03:24:26;102347.44;;;9.30;75.41
78016;BME280;67223;51.102;5.882;2023-04-19T03:26:53;102340.38;;;9.29;75.85
78016;BME280;67223;51.102;5.882;2023-04-19T03:29:19;102346.75;;;9.26;76.37
78016;BME280;67223;51.102;5.882;2023-04-19T03:31:44;102340.69;;;9.23;76.31
78016;BME280;67223;51.102;5.882;2023-04-19T03:34:10;102341.56;;;9.23;76.90
78016;BME280;67223;51.102;5.882;2023-04-19T03:36:35;102342.19;;;9.28;76.64
78016;BME280;67223;51.102;5.882;2023-04-19T03:39:02;102340.31;;;9.30;76.92
78016;BME280;67223;51.102;5.882;2023-04-19T03:41:27;102338.16;;;9.37;76.82
78016;BME280;67223;51.102;5.882;2023-04-19T03:43:53;102343.19;;;9.43;76.87
78016;BME280;67223;51.102;5.882;2023-04-19T03:46:18;102324.81;;;9.54;76.64
78016;BME280;67223;51.102;5.882;2023-04-19T03:48:44;102330.50;;;9.64;76.57
78016;BME280;67223;51.102;5.882;2023-04-19T03:51:09;102328.63;;;9.66;76.83
78016;BME280;67223;51.102;5.882;2023-04-19T03:53:35;102333.78;;;9.69;76.55
78016;BME280;67223;51.102;5.882;2023-04-19T03:56:01;102325.28;;;9.78;76.32
78016;BME280;67223;51.102;5.882;2023-04-19T03:58:26;102321.19;;;9.88;76.47
78016;BME280;67223;51.102;5.882;2023-04-19T04:00:52;102322.47;;;9.97;76.14
78016;BME280;67223;51.102;5.882;2023-04-19T04:03:18;102322.41;;;9.98;75.98
78016;BME280;67223;51.102;5.882;2023-04-19T04:05:43;102324.66;;;10.21;77.79
78016;BME280;67223;51.102;5.882;2023-04-19T04:08:09;102317.34;;;10.09;75.54
78016;BME280;67223;51.102;5.882;2023-04-19T04:10:34;102319.81;;;10.12;75.43
78016;BME280;67223;51.102;5.882;2023-04-19T04:12:59;102326.19;;;10.10;75.87
78016;BME280;67223;51.102;5.882;2023-04-19T04:15:25;102321.47;;;10.15;75.16
78016;BME280;67223;51.102;5.882;2023-04-19T04:17:50;102325.91;;;10.16;75.10
78016;BME280;67223;51.102;5.882;2023-04-19T04:20:16;102322.78;;;10.23;74.90
78016;BME280;67223;51.102;5.882;2023-04-19T04:22:42;102336.13;;;10.23;74.62
78016;BME280;67223;51.102;5.882;2023-04-19T04:25:11;102329.84;;;10.24;74.63
78016;BME280;67223;51.102;5.882;2023-04-19T04:27:37;102339.59;;;10.25;74.19
78016;BME280;67223;51.102;5.882;2023-04-19T04:30:04;102334.94;;;10.29;74.07
78016;BME280;67223;51.102;5.882;2023-04-19T04:32:30;102339.47;;;10.27;74.12
78016;BME280;67223;51.102;5.882;2023-04-19T04:35:03;102341.13;;;10.29;73.89
78016;BME280;67223;51.102;5.882;2023-04-19T04:37:31;102343.81;;;10.29;73.79
78016;BME280;67223;51.102;5.882;2023-04-19T04:39:59;102341.13;;;10.29;73.88
78016;BME280;67223;51.102;5.882;2023-04-19T04:42:24;102335.09;;;10.42;75.66
78016;BME280;67223;51.102;5.882;2023-04-19T04:44:50;102337.16;;;10.36;75.74
78016;BME280;67223;51.102;5.882;2023-04-19T04:47:16;102333.63;;;10.52;77.36
78016;BME280;67223;51.102;5.882;2023-04-19T04:49:42;102329.94;;;10.39;75.32
78016;BME280;67223;51.102;5.882;2023-04-19T04:52:07;102332.06;;;10.32;74.32
78016;BME280;67223;51.102;5.882;2023-04-19T04:54:33;102329.50;;;10.30;73.89
78016;BME280;67223;51.102;5.882;2023-04-19T04:56:59;102327.78;;;10.29;73.46
78016;BME280;67223;51.102;5.882;2023-04-19T04:59:25;102337.34;;;10.33;73.11
78016;BME280;67223;51.102;5.882;2023-04-19T05:01:51;102332.06;;;10.32;72.87
78016;BME280;67223;51.102;5.882;2023-04-19T05:04:17;102341.13;;;10.29;72.87
78016;BME280;67223;51.102;5.882;2023-04-19T05:06:43;102337.34;;;10.33;73.49
78016;BME280;67223;51.102;5.882;2023-04-19T05:09:09;102337.69;;;10.27;73.08
78016;BME280;67223;51.102;5.882;2023-04-19T05:11:35;102343.88;;;10.28;72.40
78016;BME280;67223;51.102;5.882;2023-04-19T05:14:01;102341.75;;;10.34;72.15
78016;BME280;67223;51.102;5.882;2023-04-19T05:16:26;102340.09;;;10.32;72.07
78016;BME280;67223;51.102;5.882;2023-04-19T05:18:52;102349.75;;;10.34;71.70
78016;BME280;67223;51.102;5.882;2023-04-19T05:21:17;102344.50;;;10.33;71.90
78016;BME280;67223;51.102;5.882;2023-04-19T05:23:43;102338.22;;;10.34;71.81
78016;BME280;67223;51.102;5.882;2023-04-19T05:26:08;102342.69;;;10.33;71.96
78016;BME280;67223;51.102;5.882;2023-04-19T05:28:37;102337.16;;;10.36;71.65
78016;BME280;67223;51.102;5.882;2023-04-19T05:31:03;102337.06;;;10.38;71.52
78016;BME280;67223;51.102;5.882;2023-04-19T05:33:28;102338.88;;;10.38;71.36
78016;BME280;67223;51.102;5.882;2023-04-19T05:35:54;102336.88;;;10.41;71.38
78016;BME280;67223;51.102;5.882;2023-04-19T05:38:19;102339.66;;;10.40;71.16
78016;BME280;67223;51.102;5.882;2023-04-19T05:40:45;102340.44;;;10.42;71.04
78016;BME280;67223;51.102;5.882;2023-04-19T05:43:10;102337.41;;;10.48;71.03
78016;BME280;67223;51.102;5.882;2023-04-19T05:45:36;102330.34;;;10.47;70.71
78016;BME280;67223;51.102;5.882;2023-04-19T05:48:01;102337.50;;;10.46;71.00
78016;BME280;67223;51.102;5.882;2023-04-19T05:50:26;102337.59;;;10.45;70.72
78016;BME280;67223;51.102;5.882;2023-04-19T05:52:52;102336.06;;;10.41;70.98
78016;BME280;67223;51.102;5.882;2023-04-19T05:55:17;102340.78;;;10.35;71.11
78016;BME280;67223;51.102;5.882;2023-04-19T05:57:43;102337.69;;;10.27;70.83
78016;BME280;67223;51.102;5.882;2023-04-19T06:00:09;102331.94;;;10.35;70.99
78016;BME280;67223;51.102;5.882;2023-04-19T06:02:35;102331.81;;;10.36;69.91
78016;BME280;67223;51.102;5.882;2023-04-19T06:05:00;102335.09;;;10.42;70.21
78016;BME280;67223;51.102;5.882;2023-04-19T06:07:29;102333.34;;;10.56;69.64
78016;BME280;67223;51.102;5.882;2023-04-19T06:09:55;102345.81;;;10.71;69.55
78016;BME280;67223;51.102;5.882;2023-04-19T06:12:20;102344.59;;;10.77;69.75
78016;BME280;67223;51.102;5.882;2023-04-19T06:14:46;102342.19;;;10.88;68.89
78016;BME280;67223;51.102;5.882;2023-04-19T06:17:11;102345.47;;;11.07;67.86
78016;BME280;67223;51.102;5.882;2023-04-19T06:19:37;102349.97;;;11.07;67.47
78016;BME280;67223;51.102;5.882;2023-04-19T06:22:03;102351.38;;;10.98;67.86
78016;BME280;67223;51.102;5.882;2023-04-19T06:24:28;102350.19;;;10.88;67.39
78016;BME280;67223;51.102;5.882;2023-04-19T06:26:54;102353.47;;;10.93;68.74
78016;BME280;67223;51.102;5.882;2023-04-19T06:29:19;102346.75;;;10.86;67.62
78016;BME280;67223;51.102;5.882;2023-04-19T06:31:46;102346.16;;;10.81;66.42
78016;BME280;67223;51.102;5.882;2023-04-19T06:34:11;102346.94;;;10.83;65.92
78016;BME280;67223;51.102;5.882;2023-04-19T06:36:37;102346.75;;;10.86;65.71
78016;BME280;67223;51.102;5.882;2023-04-19T06:39:02;102350.53;;;10.82;65.08
78016;BME280;67223;51.102;5.882;2023-04-19T06:41:28;102345.94;;;11.00;65.22
78016;BME280;67223;51.102;5.882;2023-04-19T06:43:53;102345.69;;;11.04;64.52
78016;BME280;67223;51.102;5.882;2023-04-19T06:46:19;102348.66;;;11.14;64.38
78016;BME280;67223;51.102;5.882;2023-04-19T06:48:44;102348.56;;;11.15;63.88
78016;BME280;67223;51.102;5.882;2023-04-19T06:51:10;102348.69;;;11.28;62.90
78016;BME280;67223;51.102;5.882;2023-04-19T06:53:35;102345.28;;;11.40;61.60
78016;BME280;67223;51.102;5.882;2023-04-19T06:56:02;102346.44;;;11.50;60.76
78016;BME280;67223;51.102;5.882;2023-04-19T06:58:29;102344.53;;;11.66;59.30
78016;BME280;67223;51.102;5.882;2023-04-19T07:00:56;102361.63;;;12.21;58.17
78016;BME280;67223;51.102;5.882;2023-04-19T07:03:21;102350.75;;;12.65;57.43
78016;BME280;67223;51.102;5.882;2023-04-19T07:05:47;102350.88;;;12.76;56.74
78016;BME280;67223;51.102;5.882;2023-04-19T07:08:12;102363.56;;;13.13;55.34
78016;BME280;67223;51.102;5.882;2023-04-19T07:10:38;102353.63;;;13.01;55.02
78016;BME280;67223;51.102;5.882;2023-04-19T07:13:03;102361.78;;;13.00;53.94
78016;BME280;67223;51.102;5.882;2023-04-19T07:15:29;102360.47;;;13.32;53.49
78016;BME280;67223;51.102;5.882;2023-04-19T07:17:54;102364.34;;;13.28;52.37
78016;BME280;67223;51.102;5.882;2023-04-19T07:20:20;102358.69;;;13.83;51.63
78016;BME280;67223;51.102;5.882;2023-04-19T07:22:46;102355.91;;;13.85;51.29
78016;BME280;67223;51.102;5.882;2023-04-19T07:25:11;102358.16;;;14.27;49.64
78016;BME280;67223;51.102;5.882;2023-04-19T07:27:37;102360.47;;;14.08;50.03
78016;BME280;67223;51.102;5.882;2023-04-19T07:30:02;102356.72;;;13.85;50.91
78016;BME280;67223;51.102;5.882;2023-04-19T07:32:28;102355.31;;;14.05;52.35
78016;BME280;67223;51.102;5.882;2023-04-19T07:34:55;102364.28;;;13.55;51.23
78016;BME280;67223;51.102;5.882;2023-04-19T07:37:21;102359.19;;;13.50;51.82
78016;BME280;67223;51.102;5.882;2023-04-19T07:39:46;102355.22;;;13.56;51.24
78016;BME280;67223;51.102;5.882;2023-04-19T07:42:11;102352.19;;;14.11;51.35
78016;BME280;67223;51.102;5.882;2023-04-19T07:44:37;102350.16;;;14.14;50.37
78016;BME280;67223;51.102;5.882;2023-04-19T07:47:03;102358.94;;;14.89;49.86
78016;BME280;67223;51.102;5.882;2023-04-19T07:49:30;102365.06;;;15.26;49.25
78016;BME280;67223;51.102;5.882;2023-04-19T07:51:59;102359.78;;;15.25;48.53
78016;BME280;67223;51.102;5.882;2023-04-19T07:54:25;102363.94;;;15.75;47.45
78016;BME280;67223;51.102;5.882;2023-04-19T07:56:51;102355.28;;;15.93;45.83
78016;BME280;67223;51.102;5.882;2023-04-19T07:59:16;102355.59;;;15.56;46.35
78016;BME280;67223;51.102;5.882;2023-04-19T08:01:42;102351.25;;;15.88;46.46
78016;BME280;67223;51.102;5.882;2023-04-19T08:04:07;102360.63;;;15.14;45.99
78016;BME280;67223;51.102;5.882;2023-04-19T08:06:33;102344.84;;;16.00;45.57
78016;BME280;67223;51.102;5.882;2023-04-19T08:08:58;102352.06;;;16.33;44.37
78016;BME280;67223;51.102;5.882;2023-04-19T08:11:24;102347.13;;;16.60;42.87
78016;BME280;67223;51.102;5.882;2023-04-19T08:13:50;102351.00;;;16.13;43.57
78016;BME280;67223;51.102;5.882;2023-04-19T08:16:15;102343.66;;;17.01;42.88
78016;BME280;67223;51.102;5.882;2023-04-19T08:18:41;102346.00;;;16.95;42.57
78016;BME280;67223;51.102;5.882;2023-04-19T08:21:06;102347.88;;;17.56;41.36
78016;BME280;67223;51.102;5.882;2023-04-19T08:23:32;102338.19;;;17.75;41.94
78016;BME280;67223;51.102;5.882;2023-04-19T08:25:57;102339.13;;;17.94;39.92
78016;BME280;67223;51.102;5.882;2023-04-19T08:28:23;102339.91;;;17.76;40.05
78016;BME280;67223;51.102;5.882;2023-04-19T08:30:48;102335.50;;;18.15;40.25
78016;BME280;67223;51.102;5.882;2023-04-19T08:33:14;102339.50;;;18.11;40.06
78016;BME280;67223;51.102;5.882;2023-04-19T08:35:40;102330.09;;;17.75;38.33
78016;BME280;67223;51.102;5.882;2023-04-19T08:38:06;102333.38;;;18.18;37.70
78016;BME280;67223;51.102;5.882;2023-04-19T08:40:32;102335.88;;;18.50;37.44
78016;BME280;67223;51.102;5.882;2023-04-19T08:42:58;102337.09;;;18.76;37.66
78016;BME280;67223;51.102;5.882;2023-04-19T08:45:27;102338.81;;;18.97;36.62
78016;BME280;67223;51.102;5.882;2023-04-19T08:47:53;102335.25;;;18.67;35.41
78016;BME280;67223;51.102;5.882;2023-04-19T08:50:19;102332.25;;;18.70;35.01
78016;BME280;67223;51.102;5.882;2023-04-19T08:52:46;102332.84;;;19.03;34.67
78016;BME280;67223;51.102;5.882;2023-04-19T08:55:12;102325.19;;;18.39;34.54
78016;BME280;67223;51.102;5.882;2023-04-19T08:57:39;102337.66;;;18.70;33.88
78016;BME280;67223;51.102;5.882;2023-04-19T09:00:05;102329.00;;;18.86;35.81
78016;BME280;67223;51.102;5.882;2023-04-19T09:02:49;102320.25;;;19.50;33.20
78016;BME280;67223;51.102;5.882;2023-04-19T09:05:16;102320.13;;;19.13;34.15
78016;BME280;67223;51.102;5.882;2023-04-19T09:07:43;102326.28;;;19.05;34.10
78016;BME280;67223;51.102;5.882;2023-04-19T09:10:14;102317.66;;;19.48;32.20
78016;BME280;67223;51.102;5.882;2023-04-19T09:12:40;102318.31;;;19.69;34.12
78016;BME280;67223;51.102;5.882;2023-04-19T09:15:07;102315.34;;;20.00;32.34
78016;BME280;67223;51.102;5.882;2023-04-19T09:17:37;102311.94;;;20.25;31.29
78016;BME280;67223;51.102;5.882;2023-04-19T09:20:04;102308.09;;;20.18;32.50
78016;BME280;67223;51.102;5.882;2023-04-19T09:22:30;102310.31;;;20.05;32.54
78016;BME280;67223;51.102;5.882;2023-04-19T09:24:57;102306.69;;;19.40;31.02
78016;BME280;67223;51.102;5.882;2023-04-19T09:27:26;102298.25;;;19.62;33.00
78016;BME280;67223;51.102;5.882;2023-04-19T09:29:54;102310.63;;;20.56;30.20
78016;BME280;67223;51.102;5.882;2023-04-19T09:32:20;102306.38;;;19.43;31.38
78016;BME280;67223;51.102;5.882;2023-04-19T09:37:17;102303.63;;;20.36;30.53
78016;BME280;67223;51.102;5.882;2023-04-19T09:39:42;102303.66;;;19.62;29.68
78016;BME280;67223;51.102;5.882;2023-04-19T09:42:08;102299.16;;;20.08;31.98
78016;BME280;67223;51.102;5.882;2023-04-19T09:44:33;102302.91;;;20.34;28.97
78016;BME280;67223;51.102;5.882;2023-04-19T09:46:59;102297.13;;;20.47;29.32
78016;BME280;67223;51.102;5.882;2023-04-19T09:49:25;102293.09;;;20.51;29.24
78016;BME280;67223;51.102;5.882;2023-04-19T09:51:55;102284.09;;;20.50;30.00
78016;BME280;67223;51.102;5.882;2023-04-19T09:54:23;102291.28;;;20.42;28.31
78016;BME280;67223;51.102;5.882;2023-04-19T09:56:50;102285.19;;;20.03;28.73
78016;BME280;67223;51.102;5.882;2023-04-19T09:59:18;102276.69;;;20.43;29.10
78016;BME280;67223;51.102;5.882;2023-04-19T10:01:55;102290.91;;;20.37;28.56
78016;BME280;67223;51.102;5.882;2023-04-19T10:04:24;102292.47;;;20.75;27.78
78016;BME280;67223;51.102;5.882;2023-04-19T10:06:52;102288.50;;;20.69;27.36
78016;BME280;67223;51.102;5.882;2023-04-19T10:09:19;102282.69;;;20.46;25.75
78016;BME280;67223;51.102;5.882;2023-04-19T10:11:52;102292.19;;;20.33;25.77
78016;BME280;67223;51.102;5.882;2023-04-19T10:14:21;102290.38;;;20.86;28.39
78016;BME280;67223;51.102;5.882;2023-04-19T10:16:47;102280.38;;;20.87;26.32
78016;BME280;67223;51.102;5.882;2023-04-19T10:19:15;102274.50;;;21.17;25.39
78016;BME280;67223;51.102;5.882;2023-04-19T10:21:42;102282.25;;;21.30;26.00
78016;BME280;67223;51.102;5.882;2023-04-19T10:24:08;102284.53;;;21.17;26.36
78016;BME280;67223;51.102;5.882;2023-04-19T10:30:03;102273.34;;;21.02;27.03
78016;BME280;67223;51.102;5.882;2023-04-19T10:32:38;102275.72;;;20.16;25.50
78016;BME280;67223;51.102;5.882;2023-04-19T10:37:33;102272.97;;;20.97;24.64
78016;BME280;67223;51.102;5.882;2023-04-19T10:39:59;102272.84;;;21.24;24.36
78016;BME280;67223;51.102;5.882;2023-04-19T10:45:32;102270.44;;;20.15;24.66
78016;BME280;67223;51.102;5.882;2023-04-19T10:47:58;102264.69;;;20.81;25.08
78016;BME280;67223;51.102;5.882;2023-04-19T10:50:24;102269.28;;;21.50;23.60
78016;BME280;67223;51.102;5.882;2023-04-19T10:52:49;102272.28;;;20.59;23.38
78016;BME280;67223;51.102;5.882;2023-04-19T10:55:17;102264.06;;;20.87;23.44
78016;BME280;67223;51.102;5.882;2023-04-19T10:58:05;102260.66;;;20.67;23.57
78016;BME280;67223;51.102;5.882;2023-04-19T11:00:31;102253.47;;;21.19;24.00
78016;BME280;67223;51.102;5.882;2023-04-19T11:02:58;102254.59;;;22.02;23.54
78016;BME280;67223;51.102;5.882;2023-04-19T11:05:25;102259.59;;;21.03;22.92
78016;BME280;67223;51.102;5.882;2023-04-19T11:07:50;102251.63;;;21.02;23.62
78016;BME280;67223;51.102;5.882;2023-04-19T11:10:27;102242.13;;;21.58;22.92
78016;BME280;67223;51.102;5.882;2023-04-19T11:12:53;102244.94;;;21.40;22.99
78016;BME280;67223;51.102;5.882;2023-04-19T11:15:21;102246.75;;;21.31;23.12
78016;BME280;67223;51.102;5.882;2023-04-19T11:17:49;102234.97;;;21.23;23.74
78016;BME280;67223;51.102;5.882;2023-04-19T11:20:15;102253.50;;;20.84;23.19
78016;BME280;67223;51.102;5.882;2023-04-19T11:22:43;102244.19;;;21.30;23.96
78016;BME280;67223;51.102;5.882;2023-04-19T11:25:16;102242.44;;;21.03;21.95
78016;BME280;67223;51.102;5.882;2023-04-19T11:27:44;102240.81;;;20.67;22.06
78016;BME280;67223;51.102;5.882;2023-04-19T11:30:16;102236.28;;;20.57;22.28
78016;BME280;67223;51.102;5.882;2023-04-19T11:32:51;102227.25;;;19.40;21.67
78016;BME280;67223;51.102;5.882;2023-04-19T11:35:21;102218.50;;;20.37;26.97
78016;BME280;67223;51.102;5.882;2023-04-19T11:37:47;102228.31;;;20.38;22.91
78016;BME280;67223;51.102;5.882;2023-04-19T11:40:17;102231.25;;;20.80;21.87
78016;BME280;67223;51.102;5.882;2023-04-19T11:42:43;102220.63;;;20.87;21.06
78016;BME280;67223;51.102;5.882;2023-04-19T11:45:09;102217.34;;;20.12;22.28
78016;BME280;67223;51.102;5.882;2023-04-19T11:47:48;102215.31;;;20.42;21.70
78016;BME280;67223;51.102;5.882;2023-04-19T11:50:37;102210.66;;;19.62;24.81
78016;BME280;67223;51.102;5.882;2023-04-19T11:55:35;102208.75;;;19.35;23.26
78016;BME280;67223;51.102;5.882;2023-04-19T11:58:00;102210.25;;;19.10;24.24
78016;BME280;67223;51.102;5.882;2023-04-19T12:00:27;102211.59;;;18.39;24.05
78016;BME280;67223;51.102;5.882;2023-04-19T12:02:53;102212.00;;;18.05;23.71
78016;BME280;67223;51.102;5.882;2023-04-19T12:05:19;102205.59;;;18.45;24.36
78016;BME280;67223;51.102;5.882;2023-04-19T12:08:04;102201.47;;;18.02;23.63
78016;BME280;67223;51.102;5.882;2023-04-19T12:10:32;102200.50;;;18.42;24.46
78016;BME280;67223;51.102;5.882;2023-04-19T12:12:58;102201.03;;;17.57;23.60
78016;BME280;67223;51.102;5.882;2023-04-19T12:15:44;102196.09;;;17.32;23.06
78016;BME280;67223;51.102;5.882;2023-04-19T12:18:10;102196.53;;;17.68;24.39
78016;BME280;67223;51.102;5.882;2023-04-19T12:20:36;102192.31;;;17.84;24.40
78016;BME280;67223;51.102;5.882;2023-04-19T12:23:02;102198.59;;;17.94;24.63
78016;BME280;67223;51.102;5.882;2023-04-19T12:25:32;102197.13;;;17.71;24.70
78016;BME280;67223;51.102;5.882;2023-04-19T12:27:59;102186.66;;;17.57;24.18
78016;BME280;67223;51.102;5.882;2023-04-19T12:30:25;102187.03;;;17.73;23.87
78016;BME280;67223;51.102;5.882;2023-04-19T12:32:54;102183.34;;;17.44;23.85
78016;BME280;67223;51.102;5.882;2023-04-19T12:35:24;102176.03;;;17.65;24.52
78016;BME280;67223;51.102;5.882;2023-04-19T12:37:52;102187.78;;;17.94;25.13
78016;BME280;67223;51.102;5.882;2023-04-19T12:40:17;102181.66;;;17.83;25.85
78016;BME280;67223;51.102;5.882;2023-04-19T12:42:43;102183.03;;;17.37;24.88
78016;BME280;67223;51.102;5.882;2023-04-19T12:45:09;102176.94;;;17.45;27.13
78016;BME280;67223;51.102;5.882;2023-04-19T12:47:35;102171.78;;;17.32;25.80
78016;BME280;67223;51.102;5.882;2023-04-19T12:50:01;102163.97;;;17.39;25.65
78016;BME280;67223;51.102;5.882;2023-04-19T12:52:26;102165.00;;;17.07;24.81
78016;BME280;67223;51.102;5.882;2023-04-19T12:54:52;102159.13;;;17.23;26.18
78016;BME280;67223;51.102;5.882;2023-04-19T12:57:17;102165.25;;;17.04;25.42
78016;BME280;67223;51.102;5.882;2023-04-19T12:59:43;102158.31;;;16.81;24.23
78016;BME280;67223;51.102;5.882;2023-04-19T13:02:08;102151.41;;;16.88;24.53
78016;BME280;67223;51.102;5.882;2023-04-19T13:04:34;102142.66;;;16.75;24.20